sensor_id;sensor_type;location;lat;lon;timestamp;pressure;altitude;pressure_sealevel;temperature;humidity
16793;BME280;8513;42.662;23.350;2024-02-04T00:02:22;95301.25;;;8.15;51.93
16793;BME280;8513;42.662;23.350;2024-02-04T00:04:50;95287.16;;;8.06;52.41
16793;BME280;8513;42.662;23.350;2024-02-04T00:07:16;95283.72;;;8.06;52.37
16793;BME280;8513;42.662;23.350;2024-02-04T00:09:41;95287.50;;;8.13;52.00
16793;BME280;8513;42.662;23.350;2024-02-04T00:12:12;95290.16;;;8.02;52.57
16793;BME280;8513;42.662;23.350;2024-02-04T00:14:37;95294.47;;;8.03;52.57
16793;BME280;8513;42.662;23.350;2024-02-04T00:17:02;95297.97;;;8.13;52.74
16793;BME280;8513;42.662;23.350;2024-02-04T00:19:29;95291.50;;;7.96;52.83
16793;BME280;8513;42.662;23.350;2024-02-04T00:21:54;95293.31;;;7.95;53.11
16793;BME280;8513;42.662;23.350;2024-02-04T00:24:19;95293.19;;;7.97;52.79
16793;BME280;8513;42.662;23.350;2024-02-04T00:26:45;95291.22;;;7.89;53.27
16793;BME280;8513;42.662;23.350;2024-02-04T00:29:11;95288.44;;;7.91;53.32
16793;BME280;8513;42.662;23.350;2024-02-04T00:31:36;95290.13;;;7.92;53.10
16793;BME280;8513;42.662;23.350;2024-02-04T00:34:02;95295.94;;;7.95;53.23
16793;BME280;8513;42.662;23.350;2024-02-04T00:36:27;95281.94;;;7.85;53.29
16793;BME280;8513;42.662;23.350;2024-02-04T00:38:52;95293.19;;;7.97;53.02
16793;BME280;8513;42.662;23.350;2024-02-04T00:41:18;95284.28;;;7.88;53.04
16793;BME280;8513;42.662;23.350;2024-02-04T00:43:43;95275.53;;;7.99;53.04
16793;BME280;8513;42.662;23.350;2024-02-04T00:46:09;95284.88;;;7.92;53.38
16793;BME280;8513;42.662;23.350;2024-02-04T00:48:36;95282.56;;;7.99;53.31
16793;BME280;8513;42.662;23.350;2024-02-04T00:51:02;95292.41;;;8.06;53.32
16793;BME280;8513;42.662;23.350;2024-02-04T00:53:28;95271.72;;;8.03;53.42
16793;BME280;8513;42.662;23.350;2024-02-04T00:56:02;95279.69;;;8.02;53.43
16793;BME280;8513;42.662;23.350;2024-02-04T00:58:27;95277.31;;;7.99;53.87
16793;BME280;8513;42.662;23.350;2024-02-04T01:00:53;95264.56;;;8.05;53.43
16793;BME280;8513;42.662;23.350;2024-02-04T01:03:18;95269.28;;;8.11;53.51
16793;BME280;8513;42.662;23.350;2024-02-04T01:05:44;95273.25;;;8.06;53.56
16793;BME280;8513;42.662;23.350;2024-02-04T01:08:09;95271.59;;;8.05;54.01
16793;BME280;8513;42.662;23.350;2024-02-04T01:10:35;95274.88;;;8.07;54.03
16793;BME280;8513;42.662;23.350;2024-02-04T01:13:00;95269.09;;;8.03;54.17
16793;BME280;8513;42.662;23.350;2024-02-04T01:15:26;95271.72;;;8.03;54.33
16793;BME280;8513;42.662;23.350;2024-02-04T01:17:51;95281.41;;;8.12;54.12
16793;BME280;8513;42.662;23.350;2024-02-04T01:20:18;95280.91;;;8.18;54.28
16793;BME280;8513;42.662;23.350;2024-02-04T01:22:43;95276.53;;;8.29;54.01
16793;BME280;8513;42.662;23.350;2024-02-04T01:25:09;95287.34;;;8.14;54.61
16793;BME280;8513;42.662;23.350;2024-02-04T01:27:34;95272.44;;;8.15;54.63
16793;BME280;8513;42.662;23.350;2024-02-04T01:29:59;95279.63;;;8.13;55.08
16793;BME280;8513;42.662;23.350;2024-02-04T01:32:25;95270.34;;;8.09;55.08
16793;BME280;8513;42.662;23.350;2024-02-04T01:34:50;95271.78;;;8.23;54.71
16793;BME280;8513;42.662;23.350;2024-02-04T01:37:16;95267.97;;;8.27;54.51
16793;BME280;8513;42.662;23.350;2024-02-04T01:39:41;95264.66;;;8.25;54.69
16793;BME280;8513;42.662;23.350;2024-02-04T01:42:06;95265.09;;;8.30;54.63
16793;BME280;8513;42.662;23.350;2024-02-04T01:44:32;95260.34;;;8.45;53.98
16793;BME280;8513;42.662;23.350;2024-02-04T01:46:57;95258.22;;;8.38;54.64
16793;BME280;8513;42.662;23.350;2024-02-04T01:49:23;95260.13;;;8.36;54.83
16793;BME280;8513;42.662;23.350;2024-02-04T01:51:49;95255.16;;;8.33;55.00
16793;BME280;8513;42.662;23.350;2024-02-04T01:54:14;95249.91;;;8.33;54.86
16793;BME280;8513;42.662;23.350;2024-02-04T01:56:40;95260.66;;;8.30;55.31
16793;BME280;8513;42.662;23.350;2024-02-04T01:59:07;95247.50;;;8.42;55.01
16793;BME280;8513;42.662;23.350;2024-02-04T02:01:34;95257.97;;;8.42;54.84
16793;BME280;8513;42.662;23.350;2024-02-04T02:03:59;95237.91;;;8.21;55.60
16793;BME280;8513;42.662;23.350;2024-02-04T02:06:27;95248.38;;;8.21;55.58
16793;BME280;8513;42.662;23.350;2024-02-04T02:08:53;95268.91;;;8.26;55.62
16793;BME280;8513;42.662;23.350;2024-02-04T02:11:43;95245.84;;;8.41;55.38
16793;BME280;8513;42.662;23.350;2024-02-04T02:14:14;95242.97;;;8.44;55.58
16793;BME280;8513;42.662;23.350;2024-02-04T02:16:43;95239.88;;;8.38;55.66
16793;BME280;8513;42.662;23.350;2024-02-04T02:19:44;95250.34;;;8.38;55.48
16793;BME280;8513;42.662;23.350;2024-02-04T02:22:29;95246.56;;;8.43;55.37
16793;BME280;8513;42.662;23.350;2024-02-04T02:24:58;95242.13;;;8.43;55.27
16793;BME280;8513;42.662;23.350;2024-02-04T02:27:25;95236.34;;;8.39;55.47
16793;BME280;8513;42.662;23.350;2024-02-04T02:29:50;95246.09;;;8.37;55.45
16793;BME280;8513;42.662;23.350;2024-02-04T02:32:16;95242.41;;;8.40;55.54
16793;BME280;8513;42.662;23.350;2024-02-04T02:34:42;95237.59;;;8.45;55.41
16793;BME280;8513;42.662;23.350;2024-02-04T02:42:30;95238.22;;;8.37;55.15
16793;BME280;8513;42.662;23.350;2024-02-04T02:44:57;95231.81;;;8.51;54.63
16793;BME280;8513;42.662;23.350;2024-02-04T02:47:23;95237.44;;;8.47;55.11
16793;BME280;8513;42.662;23.350;2024-02-04T02:49:53;95229.75;;;8.55;54.74
16793;BME280;8513;42.662;23.350;2024-02-04T02:52:20;95225.88;;;8.49;54.97
16793;BME280;8513;42.662;23.350;2024-02-04T02:54:46;95224.66;;;8.53;54.79
16793;BME280;8513;42.662;23.350;2024-02-04T02:57:11;95231.44;;;8.66;54.67
16793;BME280;8513;42.662;23.350;2024-02-04T02:59:36;95227.81;;;8.57;54.95
16793;BME280;8513;42.662;23.350;2024-02-04T03:02:02;95228.09;;;8.54;54.50
16793;BME280;8513;42.662;23.350;2024-02-04T03:04:27;95228.38;;;8.60;54.61
16793;BME280;8513;42.662;23.350;2024-02-04T03:06:53;95217.88;;;8.51;54.80
16793;BME280;8513;42.662;23.350;2024-02-04T03:09:18;95219.97;;;8.57;54.84
16793;BME280;8513;42.662;23.350;2024-02-04T03:11:43;95221.53;;;8.69;54.18
16793;BME280;8513;42.662;23.350;2024-02-04T03:14:09;95223.00;;;8.62;54.50
16793;BME280;8513;42.662;23.350;2024-02-04T03:16:34;95214.00;;;8.55;54.83
16793;BME280;8513;42.662;23.350;2024-02-04T03:19:00;95216.13;;;8.71;54.36
16793;BME280;8513;42.662;23.350;2024-02-04T03:21:25;95216.69;;;8.74;54.38
16793;BME280;8513;42.662;23.350;2024-02-04T03:23:51;95206.63;;;8.79;54.38
16793;BME280;8513;42.662;23.350;2024-02-04T03:26:17;95207.19;;;8.83;54.11
16793;BME280;8513;42.662;23.350;2024-02-04T03:28:45;95208.56;;;8.87;53.75
16793;BME280;8513;42.662;23.350;2024-02-04T03:31:11;95207.72;;;8.87;54.21
16793;BME280;8513;42.662;23.350;2024-02-04T03:33:36;95213.94;;;8.86;54.33
16793;BME280;8513;42.662;23.350;2024-02-04T03:36:02;95219.63;;;8.91;54.24
16793;BME280;8513;42.662;23.350;2024-02-04T03:38:27;95218.22;;;8.87;54.29
16793;BME280;8513;42.662;23.350;2024-02-04T03:40:54;95196.28;;;8.88;54.45
16793;BME280;8513;42.662;23.350;2024-02-04T03:43:20;95195.31;;;8.89;54.40
16793;BME280;8513;42.662;23.350;2024-02-04T03:45:45;95193.91;;;8.84;54.62
16793;BME280;8513;42.662;23.350;2024-02-04T03:48:11;95182.31;;;8.87;54.27
16793;BME280;8513;42.662;23.350;2024-02-04T03:50:36;95164.94;;;8.76;54.74
16793;BME280;8513;42.662;23.350;2024-02-04T03:53:02;95166.34;;;8.80;54.95
16793;BME280;8513;42.662;23.350;2024-02-04T03:55:27;95165.66;;;8.88;54.60
16793;BME280;8513;42.662;23.350;2024-02-04T03:57:55;95171.56;;;8.80;54.89
16793;BME280;8513;42.662;23.350;2024-02-04T04:00:22;95166.75;;;8.86;54.96
16793;BME280;8513;42.662;23.350;2024-02-04T04:02:47;95182.75;;;8.82;55.10
16793;BME280;8513;42.662;23.350;2024-02-04T04:05:13;95194.63;;;8.77;54.93
16793;BME280;8513;42.662;23.350;2024-02-04T04:07:39;95192.38;;;8.63;56.04
16793;BME280;8513;42.662;23.350;2024-02-04T04:10:05;95215.84;;;8.64;55.87
16793;BME280;8513;42.662;23.350;2024-02-04T04:12:31;95207.97;;;8.64;56.22
16793;BME280;8513;42.662;23.350;2024-02-04T04:14:56;95217.50;;;8.65;56.55
16793;BME280;8513;42.662;23.350;2024-02-04T04:17:21;95211.59;;;8.73;56.50
16793;BME280;8513;42.662;23.350;2024-02-04T04:19:47;95190.47;;;8.74;56.47
16793;BME280;8513;42.662;23.350;2024-02-04T04:22:12;95184.94;;;8.87;56.14
16793;BME280;8513;42.662;23.350;2024-02-04T04:24:38;95187.03;;;8.83;56.09
16793;BME280;8513;42.662;23.350;2024-02-04T04:27:03;95171.72;;;8.89;55.38
16793;BME280;8513;42.662;23.350;2024-02-04T04:29:29;95186.47;;;8.90;55.56
16793;BME280;8513;42.662;23.350;2024-02-04T04:31:54;95183.44;;;8.84;55.78
16793;BME280;8513;42.662;23.350;2024-02-04T04:34:20;95193.09;;;8.84;55.79
16793;BME280;8513;42.662;23.350;2024-02-04T04:36:46;95197.66;;;8.92;55.80
16793;BME280;8513;42.662;23.350;2024-02-04T04:39:11;95197.38;;;8.95;55.85
16793;BME280;8513;42.662;23.350;2024-02-04T04:41:37;95191.84;;;8.98;56.03
16793;BME280;8513;42.662;23.350;2024-02-04T04:44:02;95197.81;;;8.90;56.25
16793;BME280;8513;42.662;23.350;2024-02-04T04:46:28;95201.00;;;9.03;55.85
16793;BME280;8513;42.662;23.350;2024-02-04T04:48:53;95197.38;;;8.95;56.13
16793;BME280;8513;42.662;23.350;2024-02-04T04:51:23;95201.25;;;9.00;56.20
16793;BME280;8513;42.662;23.350;2024-02-04T04:53:48;95197.53;;;9.03;56.37
16793;BME280;8513;42.662;23.350;2024-02-04T04:56:14;95203.19;;;9.08;56.05
16793;BME280;8513;42.662;23.350;2024-02-04T04:58:39;95196.97;;;8.99;56.12
16793;BME280;8513;42.662;23.350;2024-02-04T05:01:05;95185.66;;;8.99;55.96
16793;BME280;8513;42.662;23.350;2024-02-04T05:03:31;95196.44;;;8.96;56.05
16793;BME280;8513;42.662;23.350;2024-02-04T05:05:56;95194.91;;;9.03;55.48
16793;BME280;8513;42.662;23.350;2024-02-04T05:08:22;95208.44;;;8.98;55.91
16793;BME280;8513;42.662;23.350;2024-02-04T05:10:47;95182.75;;;9.02;55.27
16793;BME280;8513;42.662;23.350;2024-02-04T05:13:13;95188.00;;;9.02;55.07
16793;BME280;8513;42.662;23.350;2024-02-04T05:15:38;95178.47;;;8.91;55.50
16793;BME280;8513;42.662;23.350;2024-02-04T05:18:04;95181.78;;;9.03;55.17
16793;BME280;8513;42.662;23.350;2024-02-04T05:20:29;95191.44;;;9.02;55.19
16793;BME280;8513;42.662;23.350;2024-02-04T05:22:55;95192.00;;;9.06;55.23
16793;BME280;8513;42.662;23.350;2024-02-04T05:25:22;95194.22;;;8.91;55.42
16793;BME280;8513;42.662;23.350;2024-02-04T05:27:47;95184.25;;;8.95;55.63
16793;BME280;8513;42.662;23.350;2024-02-04T05:30:13;95201.97;;;9.12;54.89
16793;BME280;8513;42.662;23.350;2024-02-04T05:32:39;95200.16;;;9.13;54.72
16793;BME280;8513;42.662;23.350;2024-02-04T05:35:04;95204.44;;;9.14;54.82
16793;BME280;8513;42.662;23.350;2024-02-04T05:37:32;95208.28;;;9.19;54.48
16793;BME280;8513;42.662;23.350;2024-02-04T05:39:58;95209.81;;;9.12;54.37
16793;BME280;8513;42.662;23.350;2024-02-04T05:42:24;95213.81;;;9.26;54.22
16793;BME280;8513;42.662;23.350;2024-02-04T05:44:49;95215.22;;;9.20;54.11
16793;BME280;8513;42.662;23.350;2024-02-04T05:47:15;95209.97;;;9.20;53.94
16793;BME280;8513;42.662;23.350;2024-02-04T05:49:40;95213.97;;;9.15;54.23
16793;BME280;8513;42.662;23.350;2024-02-04T05:52:06;95225.13;;;9.26;53.58
16793;BME280;8513;42.662;23.350;2024-02-04T05:54:32;95211.88;;;9.38;53.14
16793;BME280;8513;42.662;23.350;2024-02-04T05:57:02;95221.16;;;9.22;53.39
16793;BME280;8513;42.662;23.350;2024-02-04T05:59:27;95220.31;;;9.22;53.56
16793;BME280;8513;42.662;23.350;2024-02-04T06:01:52;95223.19;;;9.19;53.32
16793;BME280;8513;42.662;23.350;2024-02-04T06:04:18;95216.72;;;9.23;53.09
16793;BME280;8513;42.662;23.350;2024-02-04T06:06:44;95223.06;;;9.30;52.97
16793;BME280;8513;42.662;23.350;2024-02-04T06:09:09;95228.88;;;9.14;53.30
16793;BME280;8513;42.662;23.350;2024-02-04T06:11:35;95235.63;;;9.26;52.83
16793;BME280;8513;42.662;23.350;2024-02-04T06:14:01;95242.81;;;9.24;53.10
16793;BME280;8513;42.662;23.350;2024-02-04T06:16:26;95238.41;;;9.35;52.78
16793;BME280;8513;42.662;23.350;2024-02-04T06:18:52;95249.75;;;9.25;53.04
16793;BME280;8513;42.662;23.350;2024-02-04T06:21:20;95242.81;;;9.15;53.26
16793;BME280;8513;42.662;23.350;2024-02-04T06:23:46;95246.81;;;9.19;53.50
16793;BME280;8513;42.662;23.350;2024-02-04T06:26:11;95252.63;;;9.13;53.28
16793;BME280;8513;42.662;23.350;2024-02-04T06:28:36;95254.97;;;9.16;52.94
16793;BME280;8513;42.662;23.350;2024-02-04T06:31:02;95237.56;;;9.05;53.47
16793;BME280;8513;42.662;23.350;2024-02-04T06:33:27;95250.41;;;9.08;53.54
16793;BME280;8513;42.662;23.350;2024-02-04T06:35:53;95255.66;;;9.18;53.46
16793;BME280;8513;42.662;23.350;2024-02-04T06:38:18;95242.81;;;9.24;53.11
16793;BME280;8513;42.662;23.350;2024-02-04T06:40:44;95253.84;;;9.38;53.00
16793;BME280;8513;42.662;23.350;2024-02-04T06:43:09;95271.00;;;9.32;53.00
16793;BME280;8513;42.662;23.350;2024-02-04T06:45:35;95253.06;;;9.27;52.72
16793;BME280;8513;42.662;23.350;2024-02-04T06:48:00;95269.88;;;8.96;54.00
16793;BME280;8513;42.662;23.350;2024-02-04T06:50:25;95303.28;;;9.13;53.65
16793;BME280;8513;42.662;23.350;2024-02-04T06:52:51;95264.09;;;9.31;53.26
16793;BME280;8513;42.662;23.350;2024-02-04T06:55:16;95277.06;;;9.33;53.38
16793;BME280;8513;42.662;23.350;2024-02-04T06:57:42;95257.47;;;9.37;53.14
16793;BME280;8513;42.662;23.350;2024-02-04T07:00:08;95264.78;;;9.33;53.28
16793;BME280;8513;42.662;23.350;2024-02-04T07:02:34;95277.34;;;9.20;53.74
16793;BME280;8513;42.662;23.350;2024-02-04T07:04:59;95255.81;;;9.36;53.11
16793;BME280;8513;42.662;23.350;2024-02-04T07:07:25;95269.31;;;9.21;53.65
16793;BME280;8513;42.662;23.350;2024-02-04T07:09:50;95254.81;;;9.27;53.12
16793;BME280;8513;42.662;23.350;2024-02-04T07:12:15;95267.25;;;9.54;52.58
16793;BME280;8513;42.662;23.350;2024-02-04T07:14:41;95256.09;;;9.52;52.40
16793;BME280;8513;42.662;23.350;2024-02-04T07:17:07;95254.56;;;9.20;53.20
16793;BME280;8513;42.662;23.350;2024-02-04T07:19:32;95292.28;;;9.39;52.79
16793;BME280;8513;42.662;23.350;2024-02-04T07:21:58;95271.28;;;9.39;53.14
16793;BME280;8513;42.662;23.350;2024-02-04T07:24:23;95267.84;;;9.38;52.79
16793;BME280;8513;42.662;23.350;2024-02-04T07:26:48;95271.41;;;9.47;53.03
16793;BME280;8513;42.662;23.350;2024-02-04T07:29:14;95271.56;;;9.36;53.18
16793;BME280;8513;42.662;23.350;2024-02-04T07:31:39;95283.44;;;9.40;53.20
16793;BME280;8513;42.662;23.350;2024-02-04T07:34:05;95256.19;;;9.41;53.05
16793;BME280;8513;42.662;23.350;2024-02-04T07:36:31;95272.13;;;9.49;52.82
16793;BME280;8513;42.662;23.350;2024-02-04T07:38:56;95259.13;;;9.47;52.97
16793;BME280;8513;42.662;23.350;2024-02-04T07:41:22;95263.25;;;9.60;52.34
16793;BME280;8513;42.662;23.350;2024-02-04T07:43:47;95266.16;;;9.76;51.96
16793;BME280;8513;42.662;23.350;2024-02-04T07:46:13;95263.94;;;9.81;51.13
16793;BME280;8513;42.662;23.350;2024-02-04T07:48:39;95267.50;;;9.80;51.40
16793;BME280;8513;42.662;23.350;2024-02-04T07:51:05;95262.41;;;9.79;51.09
16793;BME280;8513;42.662;23.350;2024-02-04T07:53:30;95273.31;;;9.64;51.59
16793;BME280;8513;42.662;23.350;2024-02-04T07:55:55;95280.25;;;9.56;51.40
16793;BME280;8513;42.662;23.350;2024-02-04T07:58:21;95272.34;;;9.75;51.09
16793;BME280;8513;42.662;23.350;2024-02-04T08:00:46;95276.06;;;9.72;51.11
16793;BME280;8513;42.662;23.350;2024-02-04T08:03:12;95283.00;;;9.74;51.08
16793;BME280;8513;42.662;23.350;2024-02-04T08:05:37;95277.31;;;9.88;50.55
16793;BME280;8513;42.662;23.350;2024-02-04T08:08:03;95274.56;;;9.89;50.39
16793;BME280;8513;42.662;23.350;2024-02-04T08:10:29;95277.00;;;10.10;49.97
16793;BME280;8513;42.662;23.350;2024-02-04T08:12:54;95272.28;;;10.14;49.80
16793;BME280;8513;42.662;23.350;2024-02-04T08:15:20;95278.38;;;10.05;49.68
16793;BME280;8513;42.662;23.350;2024-02-04T08:17:45;95277.31;;;9.98;49.77
16793;BME280;8513;42.662;23.350;2024-02-04T08:20:12;95291.97;;;10.00;50.18
16793;BME280;8513;42.662;23.350;2024-02-04T08:22:37;95293.03;;;10.07;49.68
16793;BME280;8513;42.662;23.350;2024-02-04T08:25:04;95274.19;;;10.22;49.76
16793;BME280;8513;42.662;23.350;2024-02-04T08:27:31;95287.66;;;10.56;48.54
16793;BME280;8513;42.662;23.350;2024-02-04T08:29:56;95269.75;;;10.69;48.12
16793;BME280;8513;42.662;23.350;2024-02-04T08:32:22;95271.97;;;10.92;47.19
16793;BME280;8513;42.662;23.350;2024-02-04T08:34:47;95275.75;;;10.79;47.45
16793;BME280;8513;42.662;23.350;2024-02-04T08:37:13;95280.88;;;11.09;46.95
16793;BME280;8513;42.662;23.350;2024-02-04T08:39:38;95275.13;;;10.95;46.97
16793;BME280;8513;42.662;23.350;2024-02-04T08:42:04;95280.28;;;10.87;46.90
16793;BME280;8513;42.662;23.350;2024-02-04T08:44:30;95261.78;;;10.79;47.11
16793;BME280;8513;42.662;23.350;2024-02-04T08:46:55;95278.69;;;11.04;46.92
16793;BME280;8513;42.662;23.350;2024-02-04T08:49:21;95271.31;;;11.08;46.57
16793;BME280;8513;42.662;23.350;2024-02-04T08:51:46;95281.19;;;11.23;46.54
16793;BME280;8513;42.662;23.350;2024-02-04T08:54:11;95274.03;;;11.16;46.39
16793;BME280;8513;42.662;23.350;2024-02-04T08:56:37;95282.63;;;11.18;46.11
16793;BME280;8513;42.662;23.350;2024-02-04T08:59:02;95267.69;;;11.09;46.75
16793;BME280;8513;42.662;23.350;2024-02-04T09:01:28;95272.31;;;11.07;46.27
16793;BME280;8513;42.662;23.350;2024-02-04T09:03:53;95265.00;;;11.00;46.49
16793;BME280;8513;42.662;23.350;2024-02-04T09:06:19;95260.97;;;10.78;47.30
16793;BME280;8513;42.662;23.350;2024-02-04T09:08:44;95268.53;;;10.91;47.11
16793;BME280;8513;42.662;23.350;2024-02-04T09:11:09;95274.38;;;11.03;46.73
16793;BME280;8513;42.662;23.350;2024-02-04T09:13:35;95266.94;;;10.98;46.80
16793;BME280;8513;42.662;23.350;2024-02-04T09:16:00;95262.78;;;10.96;46.97
16793;BME280;8513;42.662;23.350;2024-02-04T09:18:26;95274.13;;;10.78;47.46
16793;BME280;8513;42.662;23.350;2024-02-04T09:20:51;95255.28;;;10.83;47.25
16793;BME280;8513;42.662;23.350;2024-02-04T09:23:17;95261.78;;;10.79;47.28
16793;BME280;8513;42.662;23.350;2024-02-04T09:25:42;95280.41;;;10.68;47.71
16793;BME280;8513;42.662;23.350;2024-02-04T09:28:07;95279.28;;;10.70;47.85
16793;BME280;8513;42.662;23.350;2024-02-04T09:30:33;95291.84;;;10.76;47.82
16793;BME280;8513;42.662;23.350;2024-02-04T09:32:58;95301.88;;;10.63;48.20
16793;BME280;8513;42.662;23.350;2024-02-04T09:35:24;95290.97;;;10.58;48.37
16793;BME280;8513;42.662;23.350;2024-02-04T09:37:49;95288.50;;;10.56;48.57
16793;BME280;8513;42.662;23.350;2024-02-04T09:40:15;95278.00;;;10.47;48.94
16793;BME280;8513;42.662;23.350;2024-02-04T09:42:40;95292.00;;;10.75;49.01
16793;BME280;8513;42.662;23.350;2024-02-04T09:45:06;95265.31;;;10.70;48.73
16793;BME280;8513;42.662;23.350;2024-02-04T09:47:34;95298.03;;;10.85;48.86
16793;BME280;8513;42.662;23.350;2024-02-04T09:49:59;95267.22;;;10.95;48.52
16793;BME280;8513;42.662;23.350;2024-02-04T09:52:29;95283.19;;;11.12;48.14
16793;BME280;8513;42.662;23.350;2024-02-04T09:55:00;95275.38;;;11.02;48.32
16793;BME280;8513;42.662;23.350;2024-02-04T09:57:26;95273.22;;;10.88;48.60
16793;BME280;8513;42.662;23.350;2024-02-04T09:59:51;95268.91;;;10.96;48.79
16793;BME280;8513;42.662;23.350;2024-02-04T10:02:17;95268.66;;;10.90;48.93
16793;BME280;8513;42.662;23.350;2024-02-04T10:04:43;95249.41;;;10.89;49.01
16793;BME280;8513;42.662;23.350;2024-02-04T10:07:09;95270.63;;;11.06;48.86
16793;BME280;8513;42.662;23.350;2024-02-04T10:09:34;95276.72;;;11.06;48.90
16793;BME280;8513;42.662;23.350;2024-02-04T10:12:00;95268.91;;;10.96;49.41
16793;BME280;8513;42.662;23.350;2024-02-04T10:14:25;95280.88;;;11.09;49.87
16793;BME280;8513;42.662;23.350;2024-02-04T10:16:51;95279.25;;;11.25;49.30
16793;BME280;8513;42.662;23.350;2024-02-04T10:19:16;95300.47;;;11.42;49.14
16793;BME280;8513;42.662;23.350;2024-02-04T10:21:42;95287.13;;;11.08;49.45
16793;BME280;8513;42.662;23.350;2024-02-04T10:24:07;95273.56;;;11.02;49.87
16793;BME280;8513;42.662;23.350;2024-02-04T10:26:33;95279.34;;;11.06;50.00
16793;BME280;8513;42.662;23.350;2024-02-04T10:29:03;95280.25;;;10.97;50.21
16793;BME280;8513;42.662;23.350;2024-02-04T10:31:29;95286.13;;;11.09;49.76
16793;BME280;8513;42.662;23.350;2024-02-04T10:33:55;95270.13;;;11.02;49.92
16793;BME280;8513;42.662;23.350;2024-02-04T10:36:21;95285.09;;;11.01;50.27
16793;BME280;8513;42.662;23.350;2024-02-04T10:38:47;95269.28;;;11.01;50.27
16793;BME280;8513;42.662;23.350;2024-02-04T10:41:17;95264.03;;;11.01;50.66
16793;BME280;8513;42.662;23.350;2024-02-04T10:43:43;95275.47;;;11.10;50.20
16793;BME280;8513;42.662;23.350;2024-02-04T10:46:17;95287.63;;;11.11;50.25
16793;BME280;8513;42.662;23.350;2024-02-04T10:48:47;95266.81;;;11.18;50.27
16793;BME280;8513;42.662;23.350;2024-02-04T10:51:14;95257.88;;;11.29;50.19
16793;BME280;8513;42.662;23.350;2024-02-04T10:53:41;95266.31;;;11.32;50.13
16793;BME280;8513;42.662;23.350;2024-02-04T10:58:48;95288.41;;;11.21;49.97
16793;BME280;8513;42.662;23.350;2024-02-04T11:01:14;95291.91;;;10.94;50.59
16793;BME280;8513;42.662;23.350;2024-02-04T11:03:40;95269.69;;;11.07;50.40
16793;BME280;8513;42.662;23.350;2024-02-04T11:06:07;95271.25;;;10.99;50.19
16793;BME280;8513;42.662;23.350;2024-02-04T11:08:34;95265.47;;;11.14;50.26
16793;BME280;8513;42.662;23.350;2024-02-04T11:10:59;95256.88;;;11.12;50.38
16793;BME280;8513;42.662;23.350;2024-02-04T11:13:27;95260.63;;;11.09;50.38
16793;BME280;8513;42.662;23.350;2024-02-04T11:15:56;95254.63;;;11.17;50.05
16793;BME280;8513;42.662;23.350;2024-02-04T11:18:47;95252.81;;;11.35;49.61
16793;BME280;8513;42.662;23.350;2024-02-04T11:24:34;95240.22;;;11.83;48.67
16793;BME280;8513;42.662;23.350;2024-02-04T11:27:06;95227.22;;;12.07;48.08
16793;BME280;8513;42.662;23.350;2024-02-04T11:29:32;95234.47;;;12.05;47.97
16793;BME280;8513;42.662;23.350;2024-02-04T11:31:59;95217.94;;;12.29;47.18
16793;BME280;8513;42.662;23.350;2024-02-04T11:34:25;95230.31;;;12.29;47.01
16793;BME280;8513;42.662;23.350;2024-02-04T11:36:50;95243.72;;;12.35;46.72
16793;BME280;8513;42.662;23.350;2024-02-04T11:39:18;95226.34;;;12.25;46.59
16793;BME280;8513;42.662;23.350;2024-02-04T11:41:49;95226.31;;;12.17;46.93
16793;BME280;8513;42.662;23.350;2024-02-04T11:44:22;95231.13;;;12.29;46.57
16793;BME280;8513;42.662;23.350;2024-02-04T11:46:48;95221.53;;;12.20;46.38
16793;BME280;8513;42.662;23.350;2024-02-04T11:49:19;95212.53;;;12.31;46.81
16793;BME280;8513;42.662;23.350;2024-02-04T11:51:46;95208.09;;;12.31;46.93
16793;BME280;8513;42.662;23.350;2024-02-04T11:54:17;95191.38;;;12.14;46.83
16793;BME280;8513;42.662;23.350;2024-02-04T11:56:45;95190.28;;;12.33;46.77
16793;BME280;8513;42.662;23.350;2024-02-04T11:59:14;95185.06;;;12.42;46.40
16793;BME280;8513;42.662;23.350;2024-02-04T12:01:40;95172.63;;;12.68;45.71
16793;BME280;8513;42.662;23.350;2024-02-04T12:04:24;95170.06;;;13.09;44.99
16793;BME280;8513;42.662;23.350;2024-02-04T12:06:53;95177.63;;;13.12;44.80
16793;BME280;8513;42.662;23.350;2024-02-04T12:09:19;95186.09;;;13.24;44.32
16793;BME280;8513;42.662;23.350;2024-02-04T12:11:45;95182.31;;;13.43;43.97
16793;BME280;8513;42.662;23.350;2024-02-04T12:14:10;95182.66;;;13.48;43.68
16793;BME280;8513;42.662;23.350;2024-02-04T12:16:36;95181.31;;;13.60;43.31
16793;BME280;8513;42.662;23.350;2024-02-04T12:19:02;95184.13;;;13.67;43.12
16793;BME280;8513;42.662;23.350;2024-02-04T12:21:31;95180.28;;;13.94;42.58
16793;BME280;8513;42.662;23.350;2024-02-04T12:23:58;95165.59;;;13.92;42.40
16793;BME280;8513;42.662;23.350;2024-02-04T12:26:24;95175.38;;;13.75;42.26
16793;BME280;8513;42.662;23.350;2024-02-04T12:28:50;95194.19;;;13.80;42.47
16793;BME280;8513;42.662;23.350;2024-02-04T12:31:20;95189.69;;;14.05;41.96
16793;BME280;8513;42.662;23.350;2024-02-04T12:33:53;95176.47;;;14.05;42.12
16793;BME280;8513;42.662;23.350;2024-02-04T12:36:19;95171.63;;;14.25;41.35
16793;BME280;8513;42.662;23.350;2024-02-04T12:38:55;95178.56;;;14.26;41.13
16793;BME280;8513;42.662;23.350;2024-02-04T12:41:24;95177.22;;;14.22;41.10
16793;BME280;8513;42.662;23.350;2024-02-04T12:43:55;95165.22;;;14.50;40.59
16793;BME280;8513;42.662;23.350;2024-02-04T12:46:21;95187.34;;;14.18;40.68
16793;BME280;8513;42.662;23.350;2024-02-04T12:48:54;95147.28;;;13.74;41.50
16793;BME280;8513;42.662;23.350;2024-02-04T12:51:38;95166.09;;;13.79;41.46
16793;BME280;8513;42.662;23.350;2024-02-04T12:54:04;95179.63;;;13.92;41.13
16793;BME280;8513;42.662;23.350;2024-02-04T12:56:40;95172.09;;;13.56;41.49
16793;BME280;8513;42.662;23.350;2024-02-04T12:59:05;95175.06;;;13.45;42.00
16793;BME280;8513;42.662;23.350;2024-02-04T13:01:31;95169.78;;;13.61;41.73
16793;BME280;8513;42.662;23.350;2024-02-04T13:03:56;95175.06;;;13.53;41.88
16793;BME280;8513;42.662;23.350;2024-02-04T13:06:22;95173.91;;;13.56;41.78
16793;BME280;8513;42.662;23.350;2024-02-04T13:08:47;95183.97;;;13.77;41.26
16793;BME280;8513;42.662;23.350;2024-02-04T13:11:19;95180.84;;;13.57;41.72
16793;BME280;8513;42.662;23.350;2024-02-04T13:13:45;95175.72;;;13.31;42.21
16793;BME280;8513;42.662;23.350;2024-02-04T13:16:10;95183.63;;;13.47;41.90